createdAt,value
2023-05-17T00:00:58.060Z,5.63
2023-05-17T00:03:24.845Z,5.70
2023-05-17T00:05:51.818Z,6.18
2023-05-17T00:08:18.592Z,5.82
2023-05-17T00:10:45.493Z,5.80
2023-05-17T00:13:12.354Z,5.43
2023-05-17T00:15:39.232Z,5.25
2023-05-17T00:18:06.199Z,4.95
2023-05-17T00:20:33.129Z,5.03
2023-05-17T00:23:00.838Z,5.20
2023-05-17T00:25:27.900Z,5.70
2023-05-17T00:27:54.877Z,4.47
2023-05-17T00:30:21.717Z,4.80
2023-05-17T00:32:48.714Z,4.43
2023-05-17T00:35:15.809Z,5.20
2023-05-17T00:37:47.902Z,3.85
2023-05-17T00:40:16.341Z,3.92
2023-05-17T00:42:43.223Z,4.30
2023-05-17T00:45:10.941Z,4.35
2023-05-17T00:47:37.834Z,3.75
2023-05-17T00:50:06.350Z,4.43
2023-05-17T00:52:33.358Z,4.22
2023-05-17T00:55:00.136Z,4.10
2023-05-17T00:57:29.146Z,3.75
2023-05-17T00:59:56.401Z,3.17
2023-05-17T01:02:23.692Z,3.58
2023-05-17T01:04:50.992Z,3.30
2023-05-17T01:07:18.003Z,3.88
2023-05-17T01:09:45.494Z,4.30
2023-05-17T01:12:32.680Z,3.67
2023-05-17T01:15:08.502Z,3.85
2023-05-17T01:17:56.537Z,3.63
2023-05-17T01:20:28.397Z,3.15
2023-05-17T01:23:10.178Z,3.38
2023-05-17T01:26:08.220Z,3.03
2023-05-17T01:28:38.479Z,3.65
2023-05-17T01:31:05.883Z,3.60
2023-05-17T01:33:33.473Z,2.88
2023-05-17T01:36:00.218Z,2.60
2023-05-17T01:38:26.967Z,2.13
2023-05-17T01:41:04.529Z,2.58
2023-05-17T01:43:59.331Z,2.40
2023-05-17T01:46:32.271Z,2.45
2023-05-17T01:49:26.042Z,2.50
2023-05-17T01:52:23.834Z,2.55
2023-05-17T01:54:58.646Z,2.60
2023-05-17T01:57:29.702Z,2.53
2023-05-17T02:00:00.461Z,2.40
2023-05-17T02:02:27.331Z,2.65
2023-05-17T02:04:54.870Z,2.28
2023-05-17T02:07:21.831Z,2.25
2023-05-17T02:09:48.638Z,2.63
2023-05-17T02:12:15.993Z,3.22
2023-05-17T02:14:42.876Z,3.60
2023-05-17T02:17:09.930Z,3.22
2023-05-17T02:19:36.870Z,3.38
2023-05-17T02:22:03.731Z,2.92
2023-05-17T02:24:30.731Z,2.58
2023-05-17T02:26:57.518Z,2.70
2023-05-17T02:29:24.446Z,2.95
2023-05-17T02:31:51.219Z,3.00
2023-05-17T02:34:18.010Z,2.67
2023-05-17T02:36:44.929Z,2.70
2023-05-17T02:39:11.885Z,3.00
2023-05-17T02:41:38.820Z,2.60
2023-05-17T02:44:05.720Z,2.92
2023-05-17T02:46:32.601Z,3.00
2023-05-17T02:48:59.529Z,3.10
2023-05-17T02:51:26.296Z,3.35
2023-05-17T02:53:53.215Z,3.53
2023-05-17T02:56:20.064Z,3.63
2023-05-17T02:58:46.879Z,3.78
2023-05-17T03:01:13.852Z,3.67
2023-05-17T03:03:40.942Z,4.13
2023-05-17T03:06:08.111Z,3.78
2023-05-17T03:08:35.026Z,4.05
2023-05-17T03:11:01.887Z,4.20
2023-05-17T03:13:28.759Z,4.25
2023-05-17T03:15:55.620Z,5.25
2023-05-17T03:18:22.702Z,5.75
2023-05-17T03:20:49.545Z,6.38
2023-05-17T03:23:16.305Z,5.53
2023-05-17T03:25:43.092Z,5.20
2023-05-17T03:28:10.044Z,4.90
2023-05-17T03:30:37.050Z,4.60
2023-05-17T03:33:03.945Z,4.47
2023-05-17T03:35:31.050Z,4.47
2023-05-17T03:37:58.014Z,4.90
2023-05-17T03:40:24.784Z,4.05
2023-05-17T03:42:51.913Z,4.38
2023-05-17T03:45:18.730Z,4.68
2023-05-17T03:47:45.497Z,4.53
2023-05-17T03:50:12.556Z,4.53
2023-05-17T03:52:42.085Z,4.22
2023-05-17T03:55:09.603Z,4.95
2023-05-17T03:57:36.346Z,4.47
2023-05-17T04:00:06.817Z,3.67
2023-05-17T04:02:33.670Z,3.08
2023-05-17T04:05:00.736Z,2.50
2023-05-17T04:07:27.699Z,2.10
2023-05-17T04:09:59.353Z,2.53
2023-05-17T04:12:26.433Z,2.05
2023-05-17T04:14:53.224Z,1.58
2023-05-17T04:17:20.102Z,2.10
2023-05-17T04:19:46.978Z,1.80
2023-05-17T04:22:13.912Z,1.50
2023-05-17T04:24:40.817Z,1.73
2023-05-17T04:27:08.096Z,2.40
2023-05-17T04:29:34.962Z,1.38
2023-05-17T04:32:01.722Z,1.40
2023-05-17T04:34:28.666Z,2.35
2023-05-17T04:36:55.393Z,1.60
2023-05-17T04:39:22.337Z,1.65
2023-05-17T04:41:49.743Z,1.85
2023-05-17T04:44:17.232Z,1.67
2023-05-17T04:46:44.095Z,1.48
2023-05-17T04:49:11.122Z,1.33
2023-05-17T04:51:40.541Z,1.60
2023-05-17T04:54:08.710Z,1.60
2023-05-17T04:56:39.200Z,1.40
2023-05-17T04:59:06.454Z,1.67
2023-05-17T05:01:35.282Z,2.05
2023-05-17T05:04:07.130Z,1.85
2023-05-17T05:06:34.727Z,1.95
2023-05-17T05:09:02.012Z,1.83
2023-05-17T05:11:28.924Z,1.95
2023-05-17T05:13:56.098Z,2.08
2023-05-17T05:16:25.057Z,2.00
2023-05-17T05:18:52.066Z,1.90
2023-05-17T05:21:19.249Z,2.13
2023-05-17T05:23:46.442Z,2.13
2023-05-17T05:26:13.258Z,2.17
2023-05-17T05:28:40.501Z,2.75
2023-05-17T05:31:07.658Z,2.45
2023-05-17T05:33:34.742Z,2.13
2023-05-17T05:36:01.621Z,2.75
2023-05-17T05:38:28.731Z,2.75
2023-05-17T05:40:55.532Z,2.47
2023-05-17T05:43:22.327Z,2.33
2023-05-17T05:45:49.468Z,2.60
2023-05-17T05:48:16.709Z,2.08
2023-05-17T05:50:44.669Z,2.67
2023-05-17T05:53:18.870Z,2.20
2023-05-17T05:55:47.118Z,2.30
2023-05-17T05:58:15.979Z,2.08
2023-05-17T06:00:42.788Z,2.60
2023-05-17T06:03:12.895Z,2.60
2023-05-17T06:05:40.610Z,3.08
2023-05-17T06:08:07.639Z,3.05
2023-05-17T06:10:35.031Z,1.83
2023-05-17T06:13:01.953Z,2.20
2023-05-17T06:15:29.181Z,1.90
2023-05-17T06:17:56.181Z,2.20
2023-05-17T06:20:23.606Z,2.22
2023-05-17T06:22:50.473Z,2.80
2023-05-17T06:25:17.663Z,2.28
2023-05-17T06:27:44.785Z,2.05
2023-05-17T06:30:13.017Z,2.05
2023-05-17T06:32:40.282Z,2.10
2023-05-17T06:35:08.398Z,2.20
2023-05-17T06:37:35.353Z,1.80
2023-05-17T06:40:14.874Z,1.95
2023-05-17T06:42:43.013Z,1.73
2023-05-17T06:45:10.726Z,1.50
2023-05-17T06:47:37.839Z,1.88
2023-05-17T06:50:05.150Z,1.58
2023-05-17T06:52:32.141Z,1.85
2023-05-17T06:55:01.417Z,1.88
2023-05-17T06:57:28.268Z,1.90
2023-05-17T06:59:56.815Z,2.00
2023-05-17T07:02:23.787Z,1.55
2023-05-17T07:04:50.971Z,1.50
2023-05-17T07:07:18.029Z,1.52
2023-05-17T07:09:45.024Z,1.45
2023-05-17T07:12:14.429Z,1.42
2023-05-17T07:14:41.859Z,2.17
2023-05-17T07:17:11.488Z,1.63
2023-05-17T07:19:38.504Z,1.85
2023-05-17T07:22:06.899Z,1.80
2023-05-17T07:24:35.413Z,1.40
2023-05-17T07:27:02.606Z,1.70
2023-05-17T07:29:29.846Z,1.65
2023-05-17T07:31:58.928Z,1.73
2023-05-17T07:34:26.015Z,1.50
2023-05-17T07:36:55.298Z,1.67
2023-05-17T07:39:22.042Z,1.75
2023-05-17T07:41:48.963Z,1.70
2023-05-17T07:44:16.112Z,1.90
2023-05-17T07:46:42.942Z,1.50
2023-05-17T07:49:10.390Z,1.50
2023-05-17T07:51:37.307Z,1.83
2023-05-17T07:54:04.464Z,2.25
2023-05-17T07:56:31.796Z,2.60
2023-05-17T07:58:58.649Z,2.13
2023-05-17T08:01:25.799Z,2.38
2023-05-17T08:03:52.551Z,1.25
2023-05-17T08:06:19.457Z,1.95
2023-05-17T08:08:46.466Z,1.60
2023-05-17T08:11:16.960Z,1.40
2023-05-17T08:13:47.088Z,1.55
2023-05-17T08:16:20.258Z,1.98
2023-05-17T08:18:48.589Z,1.90
2023-05-17T08:21:15.821Z,1.70
2023-05-17T08:23:44.289Z,2.17
2023-05-17T08:26:13.257Z,1.55
2023-05-17T08:28:40.322Z,1.65
2023-05-17T08:31:07.790Z,1.60
2023-05-17T08:33:37.464Z,1.70
2023-05-17T08:36:08.132Z,2.15
2023-05-17T08:38:35.650Z,1.80
2023-05-17T08:41:03.170Z,1.73
2023-05-17T08:43:31.482Z,2.30
2023-05-17T08:45:59.284Z,2.13
2023-05-17T08:48:27.762Z,2.10
2023-05-17T08:50:55.960Z,2.10
2023-05-17T08:53:23.629Z,2.40
2023-05-17T08:55:51.564Z,2.58
2023-05-17T08:58:25.790Z,1.92
2023-05-17T09:00:54.410Z,2.28
2023-05-17T09:03:22.797Z,2.30
2023-05-17T09:05:53.874Z,2.55
2023-05-17T09:08:23.178Z,2.90
2023-05-17T09:10:50.674Z,2.13
2023-05-17T09:13:17.738Z,2.17
2023-05-17T09:15:47.667Z,2.78
2023-05-17T09:18:16.296Z,1.92
2023-05-17T09:20:51.787Z,2.10
2023-05-17T09:23:21.404Z,2.60
2023-05-17T09:25:49.141Z,2.30
2023-05-17T09:28:18.832Z,2.85
2023-05-17T09:30:48.520Z,2.92
2023-05-17T09:33:18.494Z,2.50
2023-05-17T09:35:45.746Z,2.63
2023-05-17T09:38:14.029Z,2.75
2023-05-17T09:40:45.188Z,2.38
2023-05-17T09:43:13.263Z,2.58
2023-05-17T09:45:40.458Z,2.90
2023-05-17T09:48:15.916Z,2.88
2023-05-17T09:50:51.766Z,2.90
2023-05-17T09:53:32.777Z,2.65
2023-05-17T09:56:05.582Z,2.97
2023-05-17T09:58:33.658Z,3.30
2023-05-17T10:01:07.265Z,3.65
2023-05-17T10:03:38.889Z,3.47
2023-05-17T10:06:13.249Z,3.70
2023-05-17T10:08:47.503Z,3.70
2023-05-17T10:11:14.491Z,3.85
2023-05-17T10:13:58.683Z,3.28
2023-05-17T10:16:26.591Z,3.50
2023-05-17T10:18:54.075Z,4.05
2023-05-17T10:21:22.868Z,3.92
2023-05-17T10:23:54.261Z,3.60
2023-05-17T10:26:22.222Z,3.80
2023-05-17T10:28:52.263Z,3.85
2023-05-17T10:31:20.515Z,4.10
2023-05-17T10:33:50.487Z,3.00
2023-05-17T10:36:18.197Z,3.80
2023-05-17T10:38:46.092Z,4.15
2023-05-17T10:41:14.210Z,4.63
2023-05-17T10:43:43.107Z,4.78
2023-05-17T10:46:16.385Z,4.30
2023-05-17T10:48:44.468Z,4.75
2023-05-17T10:51:12.018Z,4.43
2023-05-17T10:54:03.862Z,4.85
2023-05-17T10:56:32.270Z,4.30
2023-05-17T10:59:25.017Z,4.68
2023-05-17T11:01:53.753Z,4.30
2023-05-17T11:04:35.346Z,4.90
2023-05-17T11:07:27.530Z,4.70
2023-05-17T11:09:59.962Z,4.72
2023-05-17T11:12:43.333Z,4.00
2023-05-17T11:15:24.147Z,3.90
2023-05-17T11:17:56.966Z,3.83
2023-05-17T11:20:27.734Z,3.50
2023-05-17T11:23:16.494Z,3.63
2023-05-17T11:25:43.784Z,3.45
2023-05-17T11:28:19.417Z,3.50
2023-05-17T11:30:54.055Z,4.30
2023-05-17T11:33:37.537Z,4.00
2023-05-17T11:36:13.463Z,4.60
2023-05-17T11:38:41.218Z,3.60
2023-05-17T11:43:49.614Z,3.50
2023-05-17T11:46:21.743Z,3.25
2023-05-17T11:48:51.242Z,3.05
2023-05-17T11:51:21.239Z,3.70
2023-05-17T11:53:50.146Z,3.67
2023-05-17T11:56:19.260Z,3.72
2023-05-17T11:58:52.831Z,4.03
2023-05-17T12:01:19.756Z,4.05
2023-05-17T12:03:47.584Z,4.13
2023-05-17T12:06:18.123Z,4.20
2023-05-17T12:08:46.323Z,3.55
2023-05-17T12:11:15.548Z,3.72
2023-05-17T12:13:42.774Z,2.80
2023-05-17T12:16:17.790Z,3.33
2023-05-17T12:18:48.516Z,3.50
2023-05-17T12:23:44.825Z,3.50
2023-05-17T12:26:18.807Z,4.20
2023-05-17T12:28:53.377Z,3.80
2023-05-17T12:31:25.222Z,3.60
2023-05-17T12:33:52.535Z,4.07
2023-05-17T12:36:20.054Z,3.78
2023-05-17T12:38:47.586Z,4.25
2023-05-17T12:41:16.524Z,4.05
2023-05-17T12:43:45.364Z,3.78
2023-05-17T12:46:13.775Z,4.70
2023-05-17T12:48:42.212Z,4.55
2023-05-17T12:51:13.046Z,4.07
2023-05-17T12:53:43.817Z,3.95
2023-05-17T12:56:24.841Z,4.10
2023-05-17T12:59:10.609Z,4.50
2023-05-17T13:01:44.802Z,4.13
2023-05-17T13:04:12.917Z,4.43
2023-05-17T13:06:50.073Z,5.47
2023-05-17T13:09:18.821Z,5.53
2023-05-17T13:11:56.417Z,4.60
2023-05-17T13:14:35.198Z,4.88
2023-05-17T13:17:06.637Z,5.18
2023-05-17T13:19:35.253Z,5.10
2023-05-17T13:22:03.866Z,5.50
2023-05-17T13:24:34.139Z,5.80
2023-05-17T13:27:01.902Z,5.30
2023-05-17T13:29:38.863Z,5.25
2023-05-17T13:32:08.082Z,5.22
2023-05-17T13:34:36.932Z,6.43
2023-05-17T13:37:04.933Z,6.05
2023-05-17T13:39:32.146Z,6.07
2023-05-17T13:41:59.108Z,5.88
2023-05-17T13:44:26.633Z,6.20
2023-05-17T13:46:54.717Z,6.25
2023-05-17T13:49:21.586Z,6.00
2023-05-17T13:51:48.401Z,6.07
2023-05-17T13:54:15.436Z,6.28
2023-05-17T13:56:43.392Z,5.68
2023-05-17T13:59:10.368Z,6.05
2023-05-17T14:01:37.519Z,5.88
2023-05-17T14:04:04.660Z,6.10
2023-05-17T14:06:31.788Z,5.57
2023-05-17T14:09:00.758Z,6.15
2023-05-17T14:11:30.517Z,6.10
2023-05-17T14:13:57.308Z,6.78
2023-05-17T14:16:24.035Z,5.43
2023-05-17T14:18:51.140Z,5.65
2023-05-17T14:21:18.003Z,5.82
2023-05-17T14:23:44.796Z,6.10
2023-05-17T14:26:12.003Z,6.13
2023-05-17T14:28:39.163Z,12.57
2023-05-17T14:31:06.912Z,11.23
2023-05-17T14:33:35.484Z,7.90
2023-05-17T14:36:03.935Z,7.22
2023-05-17T14:38:31.232Z,49.15
2023-05-17T14:41:00.469Z,73.82
2023-05-17T14:43:27.633Z,14.82
2023-05-17T14:45:54.488Z,10.05
2023-05-17T14:48:21.428Z,15.52
2023-05-17T14:50:48.274Z,9.15
2023-05-17T14:53:17.305Z,7.55
2023-05-17T14:55:47.759Z,7.45
2023-05-17T14:58:14.863Z,8.75
2023-05-17T15:00:48.389Z,7.93
2023-05-17T15:03:21.693Z,7.70
2023-05-17T15:05:59.122Z,8.77
2023-05-17T15:08:26.700Z,8.65
2023-05-17T15:10:54.637Z,10.00
2023-05-17T15:13:21.599Z,10.15
2023-05-17T15:15:48.463Z,8.32
2023-05-17T15:18:15.689Z,8.45
2023-05-17T15:20:42.513Z,8.82
2023-05-17T15:23:09.726Z,9.60
2023-05-17T15:25:36.809Z,9.93
2023-05-17T15:28:10.457Z,7.60
2023-05-17T15:30:37.299Z,7.60
2023-05-17T15:33:06.727Z,8.88
2023-05-17T15:35:33.881Z,9.53
2023-05-17T15:38:06.135Z,9.45
2023-05-17T15:40:33.965Z,7.70
2023-05-17T15:43:02.144Z,8.50
2023-05-17T15:45:29.358Z,7.82
2023-05-17T15:47:57.250Z,8.73
2023-05-17T15:50:24.270Z,9.15
2023-05-17T15:52:51.227Z,8.43
2023-05-17T15:55:18.203Z,7.50
2023-05-17T15:57:45.129Z,6.88
2023-05-17T16:00:14.372Z,6.90
2023-05-17T16:02:43.176Z,6.53
2023-05-17T16:05:10.265Z,5.53
2023-05-17T16:07:37.284Z,6.63
2023-05-17T16:10:04.482Z,5.40
2023-05-17T16:12:32.704Z,6.40
2023-05-17T16:14:59.653Z,7.47
2023-05-17T16:17:27.362Z,5.90
2023-05-17T16:19:54.335Z,5.38
2023-05-17T16:22:21.725Z,6.43
2023-05-17T16:24:55.362Z,6.68
2023-05-17T16:27:22.354Z,6.35
2023-05-17T16:29:49.206Z,5.85
2023-05-17T16:32:16.287Z,5.80
2023-05-17T16:34:43.187Z,6.60
2023-05-17T16:37:11.083Z,5.30
2023-05-17T16:39:41.823Z,6.68
2023-05-17T16:42:09.972Z,5.90
2023-05-17T16:45:07.924Z,6.40
2023-05-17T16:47:40.198Z,6.40
2023-05-17T16:50:10.766Z,7.47
2023-05-17T16:52:37.571Z,6.97
2023-05-17T16:55:04.669Z,6.28
2023-05-17T16:57:31.994Z,7.22
2023-05-17T17:00:01.867Z,7.55
2023-05-17T17:02:28.920Z,7.53
2023-05-17T17:04:56.023Z,8.02
2023-05-17T17:07:22.924Z,8.60
2023-05-17T17:09:49.881Z,9.20
2023-05-17T17:12:24.106Z,9.18
2023-05-17T17:14:54.215Z,8.20
2023-05-17T17:17:21.490Z,8.25
2023-05-17T17:19:48.365Z,8.52
2023-05-17T17:22:16.325Z,9.05
2023-05-17T17:24:44.486Z,8.77
2023-05-17T17:27:13.928Z,9.73
2023-05-17T17:29:46.908Z,10.13
2023-05-17T17:32:13.801Z,9.70
2023-05-17T17:34:40.968Z,10.40
2023-05-17T17:37:08.068Z,11.00
2023-05-17T17:39:35.431Z,10.40
2023-05-17T17:42:02.505Z,10.82
2023-05-17T17:44:29.451Z,9.90
2023-05-17T17:46:56.377Z,10.95
2023-05-17T17:49:23.242Z,11.57
2023-05-17T17:51:51.436Z,10.40
2023-05-17T17:54:18.231Z,11.23
2023-05-17T17:56:47.813Z,10.88
2023-05-17T17:59:14.844Z,11.95
2023-05-17T18:01:43.527Z,12.20
2023-05-17T18:04:11.298Z,11.63
2023-05-17T18:06:40.055Z,11.50
2023-05-17T18:09:06.875Z,11.45
2023-05-17T18:11:33.980Z,12.43
2023-05-17T18:14:02.661Z,10.82
2023-05-17T18:16:29.640Z,12.27
2023-05-17T18:18:56.657Z,11.48
2023-05-17T18:21:23.694Z,11.68
2023-05-17T18:23:50.661Z,11.07
2023-05-17T18:26:17.541Z,11.63
2023-05-17T18:28:44.262Z,11.38
2023-05-17T18:31:11.359Z,10.73
2023-05-17T18:33:38.345Z,11.00
2023-05-17T18:36:05.654Z,11.50
2023-05-17T18:38:37.385Z,10.80
2023-05-17T18:41:04.233Z,10.82
2023-05-17T18:43:31.677Z,12.57
2023-05-17T18:45:58.397Z,11.93
2023-05-17T18:48:25.333Z,11.52
2023-05-17T18:50:52.161Z,12.13
2023-05-17T18:53:18.915Z,11.30
2023-05-17T18:55:45.714Z,11.05
2023-05-17T18:58:12.442Z,10.80
2023-05-17T19:00:39.346Z,10.38
2023-05-17T19:03:06.168Z,10.95
2023-05-17T19:05:33.004Z,10.50
2023-05-17T19:07:59.752Z,10.82
2023-05-17T19:10:26.540Z,11.13
2023-05-17T19:12:53.549Z,10.88
2023-05-17T19:15:20.797Z,10.73
2023-05-17T19:17:47.616Z,26.50
2023-05-17T19:20:14.504Z,19.05
2023-05-17T19:22:41.315Z,11.38
2023-05-17T19:25:10.742Z,12.45
2023-05-17T19:27:37.646Z,11.07
2023-05-17T19:30:05.110Z,11.88
2023-05-17T19:32:33.139Z,13.00
2023-05-17T19:35:01.216Z,10.18
2023-05-17T19:37:28.501Z,11.13
2023-05-17T19:39:55.703Z,12.90
2023-05-17T19:42:22.541Z,12.05
2023-05-17T19:44:49.429Z,11.98
2023-05-17T19:47:17.751Z,12.27
2023-05-17T19:49:44.786Z,10.48
2023-05-17T19:52:11.631Z,11.43
2023-05-17T19:54:38.962Z,12.32
2023-05-17T19:57:09.155Z,11.65
2023-05-17T19:59:40.156Z,12.10
2023-05-17T20:02:07.037Z,12.23
2023-05-17T20:04:35.560Z,13.75
2023-05-17T20:07:02.450Z,13.88
2023-05-17T20:09:30.431Z,17.15
2023-05-17T20:11:57.859Z,16.15
2023-05-17T20:14:24.885Z,14.85
2023-05-17T20:16:51.880Z,15.27
2023-05-17T20:19:18.805Z,12.38
2023-05-17T20:21:45.952Z,12.35
2023-05-17T20:24:12.875Z,12.90
2023-05-17T20:26:40.039Z,12.88
2023-05-17T20:29:08.055Z,14.48
2023-05-17T20:31:35.910Z,14.00
2023-05-17T20:34:03.889Z,14.35
2023-05-17T20:36:53.995Z,13.85
2023-05-17T21:54:29.976Z,12.07
2023-05-17T23:31:03.018Z,10.30
2023-05-17T23:42:24.546Z,10.27
